Time;durP1;ratioP1;P1;durP2;ratioP2;P2;SDS_P1;SDS_P2;PMS_P1;PMS_P2;Temp;Humidity;BMP_temperature;BMP_pressure;BME280_temperature;BME280_humidity;BME280_pressure;Samples;Min_cycle;Max_cycle;Signal;HPM_P1;HPM_P2
2023/09/09 00:01:52;;;;;;;23.38;15.00;;;;;;;18.57;93.64;101490.81;5029339;28;20060;-70
2023/09/09 00:04:17;;;;;;;20.45;13.45;;;;;;;18.55;93.43;101484.56;5027614;28;20052;-71
2023/09/09 00:06:43;;;;;;;16.65;13.57;;;;;;;18.53;93.61;101489.38;5028682;28;20436;-71
2023/09/09 00:09:08;;;;;;;21.10;14.27;;;;;;;18.52;93.69;101487.63;5028284;28;20394;-70
2023/09/09 00:11:34;;;;;;;27.75;16.67;;;;;;;18.50;94.50;101482.25;5027899;28;20110;-70
2023/09/09 00:13:59;;;;;;;19.38;15.20;;;;;;;18.48;93.70;101481.53;5027474;28;20063;-70
2023/09/09 00:16:24;;;;;;;22.17;15.48;;;;;;;18.48;93.70;101486.19;5028761;28;20534;-70
2023/09/09 00:18:50;;;;;;;20.90;15.23;;;;;;;18.46;93.63;101478.03;5041301;28;20477;-70
2023/09/09 00:21:15;;;;;;;19.23;15.95;;;;;;;18.47;92.68;101479.81;5047084;28;20428;-71
2023/09/09 00:23:40;;;;;;;21.73;16.00;;;;;;;18.44;93.73;101482.84;5045351;28;20033;-70
2023/09/09 00:26:06;;;;;;;19.08;15.82;;;;;;;18.42;93.61;101472.97;5033215;28;20519;-70
2023/09/09 00:28:32;;;;;;;20.33;14.10;;;;;;;18.38;92.92;101475.19;5027511;28;20052;-70
2023/09/09 00:30:58;;;;;;;23.55;15.40;;;;;;;18.33;93.48;101474.75;5045190;28;20383;-71
2023/09/09 00:33:23;;;;;;;21.58;16.13;;;;;;;18.29;94.62;101474.16;5046722;28;20126;-70
2023/09/09 00:35:48;;;;;;;25.08;14.35;;;;;;;18.23;93.35;101469.25;5046675;28;20037;-71
2023/09/09 00:38:14;;;;;;;23.70;15.73;;;;;;;18.21;92.88;101475.91;5047859;28;20028;-71
2023/09/09 00:41:03;;;;;;;28.45;17.20;;;;;;;18.17;94.17;101474.44;5020936;28;20079;-70
2023/09/09 00:43:28;;;;;;;24.52;16.67;;;;;;;18.14;94.43;101477.47;5026987;28;20030;-70
2023/09/09 00:45:54;;;;;;;26.73;15.45;;;;;;;18.10;93.88;101474.16;5028675;28;20120;-71
2023/09/09 00:48:19;;;;;;;21.58;14.70;;;;;;;18.07;94.01;101472.56;5027470;28;20056;-71
2023/09/09 00:50:45;;;;;;;18.88;14.82;;;;;;;18.06;93.44;101469.97;5027866;28;20061;-71
2023/09/09 00:53:10;;;;;;;28.77;18.05;;;;;;;18.04;93.68;101469.22;5027026;28;20037;-71
2023/09/09 00:55:39;;;;;;;26.45;18.10;;;;;;;18.05;93.42;101485.63;5032441;28;20396;-71
2023/09/09 00:58:05;;;;;;;28.15;19.60;;;;;;;18.00;93.66;101473.28;5046908;28;20041;-71
2023/09/09 01:00:30;;;;;;;27.48;18.35;;;;;;;18.01;93.60;101488.81;5046157;28;20071;-70
2023/09/09 01:02:55;;;;;;;28.15;17.80;;;;;;;17.97;94.18;101477.19;5033322;28;20034;-71
2023/09/09 01:05:21;;;;;;;23.95;17.27;;;;;;;17.97;93.44;101476.34;5028280;28;20041;-71
2023/09/09 01:07:48;;;;;;;23.83;18.20;;;;;;;17.93;95.19;101472.13;5042729;28;20022;-71
2023/09/09 01:10:16;;;;;;;24.60;16.80;;;;;;;17.89;94.00;101473.41;5027140;28;20155;-71
2023/09/09 01:12:42;;;;;;;30.58;17.38;;;;;;;17.85;94.59;101473.69;5026557;28;20048;-70
2023/09/09 01:15:08;;;;;;;23.60;16.10;;;;;;;17.83;93.90;101475.75;5033689;28;20480;-71
2023/09/09 01:17:35;;;;;;;25.70;15.73;;;;;;;17.81;94.14;101475.03;5021509;28;20026;-71
2023/09/09 01:20:07;;;;;;;24.90;15.30;;;;;;;17.81;93.94;101482.38;5007997;28;20038;-71
2023/09/09 01:22:35;;;;;;;25.73;18.75;;;;;;;17.78;94.83;101477.19;5019301;28;20472;-71
2023/09/09 01:25:04;;;;;;;25.45;17.60;;;;;;;17.74;94.80;101473.84;5043968;28;20033;-71
2023/09/09 01:27:29;;;;;;;25.10;17.48;;;;;;;17.73;94.18;101472.09;5026426;28;20045;-70
2023/09/09 01:29:55;;;;;;;29.70;17.90;;;;;;;17.71;95.29;101468.56;5044447;28;20475;-70
2023/09/09 01:32:20;;;;;;;25.70;16.48;;;;;;;17.68;94.66;101470.75;5026318;28;20037;-72
2023/09/09 01:34:46;;;;;;;23.88;17.15;;;;;;;17.64;95.06;101466.56;5042090;28;20073;-72
2023/09/09 01:37:11;;;;;;;21.60;15.85;;;;;;;17.61;95.55;101470.44;5044615;28;20045;-71
2023/09/09 01:39:37;;;;;;;21.00;15.00;;;;;;;17.57;94.99;101469.84;5031339;28;20551;-72
2023/09/09 01:42:02;;;;;;;23.85;14.98;;;;;;;17.57;94.67;101466.22;5031490;28;20132;-72
2023/09/09 01:44:28;;;;;;;25.73;17.13;;;;;;;17.57;94.86;101468.97;5048408;28;20514;-71
2023/09/09 01:46:53;;;;;;;31.52;19.67;;;;;;;17.56;95.19;101470.00;5051163;28;20188;-70
2023/09/09 01:49:19;;;;;;;30.63;20.75;;;;;;;17.56;95.89;101470.88;5028985;28;20120;-72
2023/09/09 01:51:44;;;;;;;31.45;18.95;;;;;;;17.54;94.73;101466.53;5046245;28;20084;-71
2023/09/09 01:54:09;;;;;;;26.33;19.27;;;;;;;17.52;94.87;101465.78;5042943;28;20029;-72
2023/09/09 01:56:35;;;;;;;31.95;20.25;;;;;;;17.51;95.22;101466.81;5031100;28;20460;-71
2023/09/09 01:59:00;;;;;;;35.65;24.95;;;;;;;17.51;95.15;101464.91;5044904;28;20107;-72
2023/09/09 02:01:25;;;;;;;30.65;20.52;;;;;;;17.49;94.86;101466.97;5048016;28;20048;-71
2023/09/09 02:03:51;;;;;;;31.02;20.83;;;;;;;17.48;94.70;101470.69;5033868;28;20131;-71
2023/09/09 02:06:17;;;;;;;29.88;20.77;;;;;;;17.45;95.02;101464.63;5029581;28;20061;-71
2023/09/09 02:08:42;;;;;;;33.60;21.05;;;;;;;17.42;94.61;101463.00;5045769;28;20061;-72
2023/09/09 02:11:09;;;;;;;31.98;22.33;;;;;;;17.39;95.16;101462.41;5047554;28;20086;-72
2023/09/09 02:13:34;;;;;;;31.42;20.38;;;;;;;17.38;95.61;101457.94;5048181;28;20460;-72
2023/09/09 02:16:06;;;;;;;27.38;19.60;;;;;;;17.33;95.40;101459.22;5018644;28;20022;-72
2023/09/09 02:18:31;;;;;;;30.33;20.70;;;;;;;17.31;95.06;101461.25;5030299;28;20681;-71
2023/09/09 02:20:58;;;;;;;35.00;21.58;;;;;;;17.31;95.24;101463.13;5029189;28;20042;-72
2023/09/09 02:23:23;;;;;;;32.38;23.80;;;;;;;17.26;95.99;101455.31;5029562;28;20025;-72
2023/09/09 02:25:49;;;;;;;34.80;25.25;;;;;;;17.25;96.70;101467.31;5028279;28;20039;-71
2023/09/09 02:28:14;;;;;;;35.97;25.55;;;;;;;17.21;96.33;101468.59;5029553;28;20045;-72
2023/09/09 02:30:43;;;;;;;38.40;25.50;;;;;;;17.20;96.65;101469.59;5029140;28;20034;-71
2023/09/09 02:33:08;;;;;;;53.85;35.63;;;;;;;17.21;98.96;101468.59;5028458;28;20042;-71
2023/09/09 02:35:34;;;;;;;51.95;34.17;;;;;;;17.19;99.68;101462.34;5045907;28;20145;-72
2023/09/09 02:38:00;;;;;;;54.58;33.15;;;;;;;17.18;99.72;101465.25;5028901;28;20052;-70
2023/09/09 02:40:25;;;;;;;38.05;26.38;;;;;;;17.19;99.46;101470.59;5044322;28;20429;-71
2023/09/09 02:42:50;;;;;;;40.80;24.95;;;;;;;17.15;99.01;101465.53;5048450;28;20109;-72
2023/09/09 02:45:16;;;;;;;35.22;25.98;;;;;;;17.13;97.39;101473.91;5048722;28;20538;-71
2023/09/09 02:47:41;;;;;;;38.80;25.90;;;;;;;17.09;97.69;101467.81;5044043;28;20037;-71
2023/09/09 02:50:07;;;;;;;44.58;26.90;;;;;;;17.04;97.60;101461.88;5030115;28;20025;-71
2023/09/09 02:52:33;;;;;;;39.72;26.02;;;;;;;17.04;97.06;101472.88;5028990;28;20033;-71
2023/09/09 02:54:58;;;;;;;40.38;26.20;;;;;;;17.02;96.79;101474.00;5026018;28;20408;-72
2023/09/09 02:57:23;;;;;;;37.58;26.60;;;;;;;16.99;96.75;101466.91;5030045;28;20393;-71
2023/09/09 02:59:49;;;;;;;38.22;25.75;;;;;;;16.98;96.29;101461.56;5028058;28;20053;-71
2023/09/09 03:02:15;;;;;;;41.13;26.25;;;;;;;16.97;96.65;101459.78;5045223;28;20041;-71
2023/09/09 03:04:40;;;;;;;45.42;28.15;;;;;;;16.93;97.01;101458.34;5038500;28;20032;-71
2023/09/09 03:07:05;;;;;;;41.35;27.42;;;;;;;16.90;96.71;101456.75;5049678;28;20108;-72
2023/09/09 03:09:36;;;;;;;37.20;25.98;;;;;;;16.87;96.62;101465.25;5048082;28;20098;-71
2023/09/09 03:12:02;;;;;;;40.47;26.63;;;;;;;16.84;97.18;101462.78;5008771;28;20484;-72
2023/09/09 03:14:28;;;;;;;32.97;24.23;;;;;;;16.82;96.31;101468.41;5054383;28;20041;-72
2023/09/09 03:16:54;;;;;;;38.22;26.75;;;;;;;16.80;97.33;101466.81;5028878;28;20025;-71
2023/09/09 03:19:19;;;;;;;36.53;24.45;;;;;;;16.79;96.85;101465.94;5046156;28;20032;-71
2023/09/09 03:21:46;;;;;;;33.65;24.35;;;;;;;16.77;96.88;101467.94;5049407;28;20099;-71
2023/09/09 03:24:11;;;;;;;45.40;29.65;;;;;;;16.71;99.14;101459.34;5037518;28;20109;-70
2023/09/09 03:26:36;;;;;;;41.85;28.02;;;;;;;16.71;97.36;101467.59;5028104;28;20376;-71
2023/09/09 03:29:02;;;;;;;37.85;27.23;;;;;;;16.70;97.60;101463.13;5032547;28;20353;-71
2023/09/09 03:31:27;;;;;;;45.63;31.05;;;;;;;16.70;97.76;101466.72;5019965;28;20022;-70
2023/09/09 03:33:53;;;;;;;44.33;27.77;;;;;;;16.65;97.16;101463.53;5044362;28;20032;-71
2023/09/09 03:36:18;;;;;;;43.40;29.27;;;;;;;16.62;97.79;101463.78;5029130;28;20064;-71
2023/09/09 03:38:44;;;;;;;46.22;29.50;;;;;;;16.60;98.14;101463.06;5045658;28;20033;-71
2023/09/09 03:41:09;;;;;;;40.33;28.13;;;;;;;16.57;97.87;101457.81;5034134;28;20045;-71
2023/09/09 03:43:39;;;;;;;34.05;24.95;;;;;;;16.56;98.03;101453.34;5028249;28;20030;-71
2023/09/09 03:46:05;;;;;;;42.03;24.67;;;;;;;16.53;97.12;101462.72;5042952;28;20053;-71
2023/09/09 03:48:31;;;;;;;35.85;24.98;;;;;;;16.52;97.43;101465.59;5023760;28;20025;-71
2023/09/09 03:50:58;;;;;;;31.00;22.85;;;;;;;16.50;96.76;101470.34;5008418;28;20040;-67
2023/09/09 03:53:24;;;;;;;35.85;23.38;;;;;;;16.46;97.36;101467.00;5024361;28;20049;-68
2023/09/09 03:55:49;;;;;;;33.05;21.13;;;;;;;16.45;96.99;101473.50;5038538;28;20036;-68
2023/09/09 03:58:14;;;;;;;27.70;20.27;;;;;;;16.42;97.27;101471.03;5026618;28;20037;-68
2023/09/09 04:00:40;;;;;;;29.45;20.77;;;;;;;16.41;97.40;101473.88;5026983;28;20049;-72
2023/09/09 04:03:05;;;;;;;31.38;21.17;;;;;;;16.37;97.16;101470.56;5027572;28;20440;-72
2023/09/09 04:05:31;;;;;;;32.13;21.88;;;;;;;16.32;97.57;101476.44;5027010;28;20038;-72
2023/09/09 04:07:58;;;;;;;26.88;19.90;;;;;;;16.33;96.71;101477.31;5028210;28;20045;-71
2023/09/09 04:10:24;;;;;;;32.05;20.90;;;;;;;16.29;96.60;101479.47;5042884;28;20028;-69
2023/09/09 04:12:49;;;;;;;31.25;20.13;;;;;;;16.27;97.05;101475.09;5031186;28;20416;-69
2023/09/09 04:15:14;;;;;;;31.33;20.40;;;;;;;16.28;96.87;101485.09;5027120;28;20128;-68
2023/09/09 04:17:40;;;;;;;35.20;21.10;;;;;;;16.24;97.13;101473.50;5026659;28;20503;-68
2023/09/09 04:20:08;;;;;;;32.13;22.40;;;;;;;16.24;97.70;101475.38;5023122;28;20068;-68
2023/09/09 04:22:34;;;;;;;31.38;22.65;;;;;;;16.23;98.55;101480.00;5006961;28;20072;-69
2023/09/09 04:25:00;;;;;;;28.60;20.65;;;;;;;16.20;97.79;101477.50;5037732;28;20433;-68
2023/09/09 04:27:26;;;;;;;32.92;22.10;;;;;;;16.17;98.00;101476.88;5025882;28;20120;-68
2023/09/09 04:29:51;;;;;;;30.67;21.50;;;;;;;16.17;97.52;101474.16;5043593;28;20111;-68
2023/09/09 04:32:16;;;;;;;40.40;25.58;;;;;;;16.17;98.65;101479.63;5042366;28;20044;-67
2023/09/09 04:34:42;;;;;;;46.28;25.92;;;;;;;16.16;97.54;101475.16;5042867;28;20044;-68
2023/09/09 04:37:08;;;;;;;47.80;28.20;;;;;;;16.16;97.99;101475.16;5027521;28;20564;-68
2023/09/09 04:39:33;;;;;;;49.28;27.98;;;;;;;16.17;97.79;101471.41;5026597;28;20057;-68
2023/09/09 04:41:59;;;;;;;52.92;29.98;;;;;;;16.17;97.94;101479.63;5026924;28;20056;-67
2023/09/09 04:44:24;;;;;;;52.92;34.95;;;;;;;16.14;99.38;101475.28;5027376;28;20040;-69
2023/09/09 04:46:50;;;;;;;51.20;32.03;;;;;;;16.11;99.36;101480.16;5043589;28;20132;-68
2023/09/09 04:49:17;;;;;;;46.80;30.13;;;;;;;16.05;98.84;101474.19;5047322;28;20098;-69
2023/09/09 04:51:43;;;;;;;47.03;28.90;;;;;;;16.00;98.43;101484.72;5025912;28;20045;-68
2023/09/09 04:54:09;;;;;;;43.35;28.23;;;;;;;15.97;98.26;101484.97;5042875;28;20079;-68
2023/09/09 04:56:35;;;;;;;41.55;26.33;;;;;;;15.93;97.89;101488.97;5042011;28;20033;-67
2023/09/09 04:59:00;;;;;;;42.83;28.65;;;;;;;15.91;98.57;101488.22;5046544;28;20029;-68
2023/09/09 05:01:26;;;;;;;50.70;31.42;;;;;;;15.88;97.90;101485.75;5046478;28;20025;-68
2023/09/09 05:03:51;;;;;;;51.42;33.65;;;;;;;15.85;98.69;101488.72;5044837;28;20028;-68
2023/09/09 05:06:17;;;;;;;55.17;33.90;;;;;;;15.82;98.34;101480.78;5008099;28;20378;-68
2023/09/09 05:08:42;;;;;;;55.90;36.67;;;;;;;15.82;98.80;101489.88;5009230;28;20080;-68
2023/09/09 05:11:09;;;;;;;51.00;33.20;;;;;;;15.80;98.40;101489.13;5033881;28;20758;-68
2023/09/09 05:13:36;;;;;;;51.45;35.63;;;;;;;15.80;99.28;101485.50;5021888;28;20030;-68
2023/09/09 05:16:01;;;;;;;48.55;33.65;;;;;;;15.79;99.39;101481.91;5027498;28;20075;-68
2023/09/09 05:18:26;;;;;;;49.92;33.13;;;;;;;15.79;99.68;101484.63;5022096;28;20069;-69
2023/09/09 05:20:52;;;;;;;57.28;33.58;;;;;;;15.79;99.61;101489.25;5008596;28;20046;-68
2023/09/09 05:23:18;;;;;;;47.88;33.08;;;;;;;15.82;100.00;101494.50;5022792;28;20030;-68
2023/09/09 05:25:43;;;;;;;47.10;32.97;;;;;;;15.81;99.71;101493.63;5030655;28;20033;-69
2023/09/09 05:28:09;;;;;;;53.78;36.97;;;;;;;15.84;100.00;101492.47;5025299;28;20034;-68
2023/09/09 05:30:39;;;;;;;52.08;37.65;;;;;;;15.90;99.91;101496.56;5042705;28;20046;-68
2023/09/09 05:33:04;;;;;;;52.08;36.90;;;;;;;15.95;100.00;101494.34;5026317;28;20051;-68
2023/09/09 05:35:29;;;;;;;57.28;36.40;;;;;;;15.95;100.00;101497.09;5025997;28;20120;-69
2023/09/09 05:37:55;;;;;;;56.17;36.85;;;;;;;15.98;100.00;101499.56;5022495;28;20029;-70
2023/09/09 05:40:20;;;;;;;65.00;39.85;;;;;;;16.01;100.00;101508.41;5025335;28;20442;-70
2023/09/09 05:42:46;;;;;;;77.53;42.35;;;;;;;16.01;100.00;101508.41;5022844;28;20061;-68
2023/09/09 05:45:11;;;;;;;67.30;40.03;;;;;;;16.07;100.00;101507.88;5026167;28;20029;-68
2023/09/09 05:47:38;;;;;;;79.18;44.60;;;;;;;16.11;100.00;101513.97;5021317;28;20535;-68
2023/09/09 05:50:05;;;;;;;76.97;43.08;;;;;;;16.15;100.00;101507.22;5032491;28;20053;-70
2023/09/09 05:52:31;;;;;;;74.05;43.17;;;;;;;16.20;100.00;101506.84;5024310;28;20026;-68
2023/09/09 05:54:56;;;;;;;94.68;42.28;;;;;;;16.26;100.00;101511.78;5055836;28;20100;-68
2023/09/09 05:57:22;;;;;;;106.40;46.33;;;;;;;16.30;100.00;101510.53;5038282;28;20467;-70
2023/09/09 05:59:48;;;;;;;107.80;44.85;;;;;;;16.31;100.00;101513.13;5024229;28;20119;-69
2023/09/09 06:02:15;;;;;;;102.28;47.63;;;;;;;16.33;100.00;101516.63;5027851;28;20539;-68
2023/09/09 06:04:41;;;;;;;94.57;47.28;;;;;;;16.39;100.00;101517.09;5041487;28;20033;-68
2023/09/09 06:07:06;;;;;;;92.30;45.95;;;;;;;16.45;100.00;101519.31;5031553;28;20412;-68
2023/09/09 06:09:32;;;;;;;76.20;45.60;;;;;;;16.53;100.00;101519.53;5024470;28;20037;-68
2023/09/09 06:11:58;;;;;;;67.80;45.58;;;;;;;16.55;100.00;101523.91;5029830;28;20029;-69
2023/09/09 06:14:23;;;;;;;66.55;45.35;;;;;;;16.63;100.00;101525.09;5024987;28;20061;-69
2023/09/09 06:16:48;;;;;;;81.47;45.40;;;;;;;16.69;100.00;101524.53;5025914;28;20378;-69
2023/09/09 06:19:14;;;;;;;80.60;49.00;;;;;;;16.77;100.00;101528.41;5037662;28;20432;-69
2023/09/09 06:21:39;;;;;;;104.88;53.30;;;;;;;16.81;100.00;101529.00;5047136;28;20026;-69
2023/09/09 06:24:07;;;;;;;89.15;57.15;;;;;;;16.89;100.00;101536.59;5028176;28;20033;-69
2023/09/09 06:26:33;;;;;;;125.95;60.70;;;;;;;16.93;100.00;101535.31;5057453;28;20323;-69
2023/09/09 06:29:00;;;;;;;136.27;59.25;;;;;;;16.99;100.00;101538.38;5028127;28;20043;-69
2023/09/09 06:31:26;;;;;;;94.60;59.50;;;;;;;17.04;100.00;101546.22;5045630;28;20099;-68
2023/09/09 06:33:52;;;;;;;89.00;58.53;;;;;;;17.07;100.00;101545.97;5034052;28;20414;-69
2023/09/09 06:36:20;;;;;;;84.82;56.35;;;;;;;17.16;100.00;101544.25;5036478;28;20037;-69
2023/09/09 06:38:45;;;;;;;126.30;63.33;;;;;;;17.19;100.00;101547.59;5028374;28;20037;-69
2023/09/09 06:41:13;;;;;;;105.93;62.72;;;;;;;17.21;100.00;101553.84;5028565;28;20451;-69
2023/09/09 06:43:38;;;;;;;94.32;60.35;;;;;;;17.29;100.00;101554.00;5028153;28;20045;-68
2023/09/09 06:46:03;;;;;;;99.60;60.88;;;;;;;17.40;100.00;101549.44;5030345;28;20378;-68
2023/09/09 06:48:30;;;;;;;102.63;62.70;;;;;;;17.49;100.00;101549.50;5028642;28;20026;-69
2023/09/09 06:50:55;;;;;;;93.70;60.40;;;;;;;17.58;100.00;101556.91;5029596;28;20045;-69
2023/09/09 06:53:21;;;;;;;91.18;57.05;;;;;;;17.70;100.00;101554.03;5029771;28;20445;-68
2023/09/09 06:55:47;;;;;;;115.28;64.38;;;;;;;17.77;100.00;101558.88;5034889;28;20028;-69
2023/09/09 06:58:13;;;;;;;116.82;71.95;;;;;;;17.84;100.00;101557.28;5047836;28;20033;-69
2023/09/09 07:00:39;;;;;;;115.03;70.20;;;;;;;17.94;100.00;101553.69;5049944;28;20508;-68
2023/09/09 07:03:05;;;;;;;106.65;69.05;;;;;;;17.98;100.00;101558.78;5036191;28;20090;-69
2023/09/09 07:05:31;;;;;;;114.22;70.10;;;;;;;18.09;100.00;101560.53;5030183;28;20168;-68
2023/09/09 07:07:57;;;;;;;106.85;72.55;;;;;;;18.19;100.00;101568.84;5029115;28;20041;-68
2023/09/09 07:10:22;;;;;;;121.43;73.43;;;;;;;18.28;100.00;101565.22;5029448;28;20033;-68
2023/09/09 07:12:49;;;;;;;117.47;72.97;;;;;;;18.33;100.00;101565.66;5030359;28;20034;-68
2023/09/09 07:15:15;;;;;;;116.28;74.32;;;;;;;18.40;100.00;101558.53;5049693;28;20491;-68
2023/09/09 07:17:43;;;;;;;130.93;77.50;;;;;;;18.47;100.00;101575.38;5028002;28;20468;-70
2023/09/09 07:20:09;;;;;;;125.22;76.32;;;;;;;18.55;100.00;101576.38;5040505;28;20025;-69
2023/09/09 07:22:34;;;;;;;156.85;80.03;;;;;;;18.63;100.00;101583.06;5028070;28;20064;-68
2023/09/09 07:25:00;;;;;;;117.60;76.40;;;;;;;18.77;100.00;101575.25;5027296;28;20041;-68
2023/09/09 07:27:25;;;;;;;125.40;75.80;;;;;;;18.88;100.00;101578.84;5026875;28;20392;-68
2023/09/09 07:29:50;;;;;;;118.25;75.00;;;;;;;18.98;100.00;101571.44;5029355;28;20017;-68
2023/09/09 07:32:16;;;;;;;123.32;78.25;;;;;;;19.08;100.00;101573.16;5030698;28;20465;-68
2023/09/09 07:34:41;;;;;;;113.88;76.00;;;;;;;19.17;99.25;101574.16;5026877;28;20472;-69
2023/09/09 07:37:06;;;;;;;119.97;77.85;;;;;;;19.23;100.00;101580.97;5030956;28;20427;-68
2023/09/09 07:39:43;;;;;;;110.57;75.18;;;;;;;19.32;99.98;101582.84;5018814;28;20116;-69
2023/09/09 07:42:09;;;;;;;108.20;75.07;;;;;;;19.41;99.47;101581.06;5019640;28;20056;-69
2023/09/09 07:44:34;;;;;;;124.30;80.18;;;;;;;19.52;100.00;101586.38;5026969;28;20068;-68
2023/09/09 07:46:59;;;;;;;116.38;77.72;;;;;;;19.64;99.26;101582.47;5029577;28;20499;-68
2023/09/09 07:49:25;;;;;;;120.65;78.78;;;;;;;19.76;99.13;101586.75;5031117;28;20532;-69
2023/09/09 07:51:50;;;;;;;121.57;79.15;;;;;;;19.80;98.72;101588.19;5049349;28;20368;-69
2023/09/09 07:54:15;;;;;;;117.10;79.70;;;;;;;19.84;98.09;101586.84;5046550;28;20421;-69
2023/09/09 07:56:45;;;;;;;118.00;81.20;;;;;;;19.93;97.51;101592.47;5026726;28;20063;-69
2023/09/09 07:59:10;;;;;;;113.78;77.70;;;;;;;19.98;96.99;101592.88;5034316;28;20039;-67
2023/09/09 08:01:36;;;;;;;115.47;78.60;;;;;;;20.06;96.24;101593.84;5030275;28;20430;-68
2023/09/09 08:04:01;;;;;;;111.18;78.47;;;;;;;20.06;96.88;101587.47;5026666;28;20041;-68
2023/09/09 08:06:27;;;;;;;112.43;79.38;;;;;;;20.13;97.03;101588.56;5028670;28;20040;-69
2023/09/09 08:08:52;;;;;;;117.35;81.35;;;;;;;20.20;98.35;101595.22;5028105;28;20025;-67
2023/09/09 08:11:17;;;;;;;110.20;78.45;;;;;;;20.31;97.96;101599.66;5026932;28;20037;-68
2023/09/09 08:13:43;;;;;;;116.93;79.50;;;;;;;20.36;96.88;101600.91;5026231;28;20215;-68
2023/09/09 08:16:08;;;;;;;119.55;81.72;;;;;;;20.44;96.83;101596.50;5028434;28;20477;-68
2023/09/09 08:18:34;;;;;;;117.20;80.07;;;;;;;20.49;97.73;101602.47;5027436;28;20676;-69
2023/09/09 08:21:00;;;;;;;109.80;76.13;;;;;;;20.49;96.58;101608.88;5028585;28;20037;-67
2023/09/09 08:23:26;;;;;;;109.68;75.57;;;;;;;20.54;96.58;101600.09;5027677;28;20045;-68
2023/09/09 08:25:51;;;;;;;105.25;74.95;;;;;;;20.58;96.16;101604.28;5044402;28;20705;-67
2023/09/09 08:28:17;;;;;;;109.05;75.80;;;;;;;20.65;96.79;101608.16;5047266;28;20076;-67
2023/09/09 08:30:42;;;;;;;107.38;76.32;;;;;;;20.73;97.13;101608.22;5038409;28;20481;-68
2023/09/09 08:33:07;;;;;;;102.53;71.43;;;;;;;20.88;96.21;101614.06;5026714;28;20169;-68
2023/09/09 08:35:33;;;;;;;101.28;73.05;;;;;;;20.97;96.05;101610.34;5035274;28;20033;-68
2023/09/09 08:37:59;;;;;;;98.72;71.15;;;;;;;21.00;95.99;101611.94;5035431;28;20033;-68
2023/09/09 08:40:28;;;;;;;110.47;79.35;;;;;;;20.97;96.19;101609.47;5040632;28;20115;-70
2023/09/09 08:43:23;;;;;;;107.50;76.10;;;;;;;21.01;97.37;101619.19;5034322;28;20546;-68
2023/09/09 08:46:12;;;;;;;115.43;80.00;;;;;;;20.98;99.31;101617.59;5027559;28;20400;-67
2023/09/09 08:48:39;;;;;;;108.00;78.50;;;;;;;20.95;98.90;101620.72;5026738;28;20075;-68
2023/09/09 08:51:11;;;;;;;106.47;74.65;;;;;;;21.01;98.13;101616.44;5027197;28;20017;-67
2023/09/09 08:53:39;;;;;;;102.70;73.00;;;;;;;21.15;98.45;101622.25;5026493;28;20516;-68
2023/09/09 08:56:05;;;;;;;102.35;73.65;;;;;;;21.23;97.87;101623.34;5028318;28;20034;-68
2023/09/09 08:58:30;;;;;;;100.32;72.43;;;;;;;21.36;98.66;101619.16;5022652;28;20480;-67
2023/09/09 09:00:57;;;;;;;99.70;72.78;;;;;;;21.52;97.56;101617.50;5026629;28;20072;-68
2023/09/09 09:03:23;;;;;;;105.15;73.60;;;;;;;21.75;96.78;101624.22;5027267;28;20091;-68
2023/09/09 09:05:53;;;;;;;90.80;66.13;;;;;;;21.91;94.88;101620.66;5029154;28;20049;-68
2023/09/09 09:08:18;;;;;;;87.72;61.97;;;;;;;22.08;94.73;101621.59;5026874;28;20048;-67
2023/09/09 09:10:47;;;;;;;83.07;60.53;;;;;;;22.17;93.48;101622.53;5032047;28;20412;-68
2023/09/09 09:13:13;;;;;;;84.15;60.13;;;;;;;22.22;92.60;101631.22;5039924;28;20052;-68
2023/09/09 09:15:39;;;;;;;78.38;57.15;;;;;;;22.28;93.10;101627.75;5026926;28;20029;-68
2023/09/09 09:18:04;;;;;;;66.32;48.08;;;;;;;22.39;92.09;101628.31;5024897;28;20064;-68
2023/09/09 09:20:33;;;;;;;72.75;52.88;;;;;;;22.46;90.03;101627.63;5032662;28;20068;-69
2023/09/09 09:23:05;;;;;;;68.70;47.85;;;;;;;22.59;90.16;101630.78;5025666;28;20095;-70
2023/09/09 09:25:45;;;;;;;40.83;31.55;;;;;;;22.72;88.25;101638.63;5025370;28;20088;-68
2023/09/09 09:28:13;;;;;;;38.25;30.20;;;;;;;22.93;87.42;101625.13;5024749;28;20033;-68
2023/09/09 09:30:38;;;;;;;46.70;35.47;;;;;;;23.15;88.74;101624.44;5027102;28;20065;-69
2023/09/09 09:33:04;;;;;;;46.38;33.90;;;;;;;23.58;90.36;101625.06;5026208;28;20045;-70
2023/09/09 09:35:30;;;;;;;46.78;35.33;;;;;;;23.80;86.22;101628.16;5027103;28;20037;-69
2023/09/09 09:37:57;;;;;;;47.47;37.88;;;;;;;24.03;86.49;101623.56;5026448;28;20049;-69
2023/09/09 09:40:23;;;;;;;43.70;32.60;;;;;;;24.25;84.14;101623.78;5026752;28;20485;-69
2023/09/09 09:42:51;;;;;;;38.28;30.35;;;;;;;24.40;82.36;101617.31;5026142;28;20091;-69
2023/09/09 09:45:17;;;;;;;41.92;33.45;;;;;;;24.63;78.78;101622.91;5027250;28;20041;-69
2023/09/09 09:47:46;;;;;;;43.22;34.15;;;;;;;25.14;83.38;101631.59;5031692;28;20086;-69
2023/09/09 09:50:25;;;;;;;41.92;30.42;;;;;;;25.44;78.84;101624.16;5027154;28;20037;-68
2023/09/09 09:53:05;;;;;;;42.60;32.60;;;;;;;25.57;78.99;101623.50;5027358;28;20041;-70
2023/09/09 09:55:36;;;;;;;38.67;30.10;;;;;;;25.98;78.31;101625.84;5023102;28;20124;-69
2023/09/09 09:58:06;;;;;;;43.70;30.88;;;;;;;26.37;74.32;101624.63;5028200;28;20037;-68
2023/09/09 10:00:32;;;;;;;26.92;22.00;;;;;;;26.64;73.67;101621.13;5030548;28;20103;-69
2023/09/09 10:03:00;;;;;;;32.03;24.00;;;;;;;26.92;74.19;101620.31;5030002;28;20037;-70
2023/09/09 10:05:29;;;;;;;32.45;24.15;;;;;;;26.88;68.05;101624.56;5044817;28;20124;-69
2023/09/09 10:08:23;;;;;;;26.63;20.98;;;;;;;27.23;73.09;101611.59;5045750;28;20643;-71
2023/09/09 10:11:01;;;;;;;30.15;23.65;;;;;;;27.30;67.96;101614.47;5016716;28;20042;-69
2023/09/09 10:14:10;;;;;;;36.83;27.38;;;;;;;27.33;70.34;101617.72;5029862;28;20042;-68
2023/09/09 10:16:37;;;;;;;34.15;25.98;;;;;;;27.31;64.99;101617.03;5025207;28;20485;-68
2023/09/09 10:19:04;;;;;;;28.88;23.40;;;;;;;27.57;66.58;101618.31;5028680;28;20083;-68
2023/09/09 10:21:31;;;;;;;29.20;21.92;;;;;;;27.55;62.20;101617.66;5045587;28;20149;-68
2023/09/09 10:23:57;;;;;;;24.98;20.65;;;;;;;27.66;61.79;101619.91;5031868;28;20017;-68
2023/09/09 10:26:23;;;;;;;22.63;18.45;;;;;;;27.66;61.61;101617.97;5029047;28;20416;-68
2023/09/09 10:28:49;;;;;;;20.17;12.75;;;;;;;27.84;60.19;101617.47;5029877;28;20052;-69
2023/09/09 10:31:16;;;;;;;12.25;10.00;;;;;;;28.13;58.94;101613.50;5029101;28;20048;-69
2023/09/09 10:33:42;;;;;;;14.00;11.52;;;;;;;28.46;59.66;101610.00;5029838;28;20076;-69
2023/09/09 10:36:08;;;;;;;14.98;9.93;;;;;;;28.79;56.20;101612.88;5030492;28;20029;-68
2023/09/09 10:38:34;;;;;;;14.57;11.80;;;;;;;28.88;55.90;101605.16;5028320;28;20048;-68
2023/09/09 10:41:01;;;;;;;14.73;12.02;;;;;;;28.88;56.79;101617.22;5029133;28;20396;-68
2023/09/09 10:43:26;;;;;;;16.48;13.75;;;;;;;28.88;55.13;101610.75;5029387;28;20034;-69
2023/09/09 10:45:52;;;;;;;15.95;13.07;;;;;;;29.03;53.89;101607.78;5045235;28;20036;-69
2023/09/09 10:48:21;;;;;;;15.18;12.95;;;;;;;29.23;55.55;101617.03;5029536;28;20611;-68
2023/09/09 10:50:51;;;;;;;14.27;12.05;;;;;;;29.45;55.36;101615.75;5029905;28;20112;-69
2023/09/09 10:53:22;;;;;;;22.20;17.13;;;;;;;29.34;53.09;101615.56;5028461;28;20623;-68
2023/09/09 10:55:55;;;;;;;21.10;17.10;;;;;;;29.02;53.06;101606.91;5024376;28;20071;-68
2023/09/09 10:58:33;;;;;;;22.98;15.00;;;;;;;29.16;55.15;101613.38;5027979;28;20037;-68
2023/09/09 11:00:59;;;;;;;15.07;13.40;;;;;;;29.44;55.24;101614.03;5029441;28;20061;-68
2023/09/09 11:03:28;;;;;;;13.43;11.40;;;;;;;29.71;56.57;101609.28;5028458;28;20127;-70
2023/09/09 11:06:10;;;;;;;13.77;12.43;;;;;;;29.98;58.19;101610.06;5010131;28;20087;-69